ΕΜΥ, Εθνική Μετεωρολογική Υπηρεσία - Δελτία Καιρού, Προγνώσεις

ΑΕΡΟΝΑΥΤΙΛΙΑ

GREEK AIRPORTS CODES

LGAV 261950Z 36007KT CAVOK 14/06 Q1022 RMK FEW080 NOSIG=

EUROPEAN AIRPORTS CODES

LFPO 262000Z VRB02KT 9999 SCT045 SCT093 12/10 Q1025 NOSIG=